sensor_id;sensor_type;location;lat;lon;timestamp;temperature;humidity
39019;DHT22;24786;51.984;5.872;2024-02-15T00:00:40;12.10;99.90
39019;DHT22;24786;51.984;5.872;2024-02-15T00:03:26;12.10;99.90
39019;DHT22;24786;51.984;5.872;2024-02-15T00:05:51;12.00;99.90
39019;DHT22;24786;51.984;5.872;2024-02-15T00:08:28;12.10;99.90
39019;DHT22;24786;51.984;5.872;2024-02-15T00:10:53;12.10;99.90
39019;DHT22;24786;51.984;5.872;2024-02-15T00:13:19;12.10;99.90
39019;DHT22;24786;51.984;5.872;2024-02-15T00:15:44;12.00;99.90
39019;DHT22;24786;51.984;5.872;2024-02-15T00:18:13;12.00;99.90
39019;DHT22;24786;51.984;5.872;2024-02-15T00:20:39;12.00;99.90
39019;DHT22;24786;51.984;5.872;2024-02-15T00:23:04;12.10;99.90
39019;DHT22;24786;51.984;5.872;2024-02-15T00:25:31;12.10;99.90
39019;DHT22;24786;51.984;5.872;2024-02-15T00:27:57;12.00;99.90
39019;DHT22;24786;51.984;5.872;2024-02-15T00:30:22;12.00;99.90
39019;DHT22;24786;51.984;5.872;2024-02-15T00:32:48;12.10;99.90
39019;DHT22;24786;51.984;5.872;2024-02-15T00:35:14;12.10;99.90
39019;DHT22;24786;51.984;5.872;2024-02-15T00:37:42;12.10;99.90
39019;DHT22;24786;51.984;5.872;2024-02-15T00:40:08;12.10;99.90
39019;DHT22;24786;51.984;5.872;2024-02-15T00:42:34;12.10;99.90
39019;DHT22;24786;51.984;5.872;2024-02-15T00:44:59;12.10;99.90
39019;DHT22;24786;51.984;5.872;2024-02-15T00:47:25;12.10;99.90
39019;DHT22;24786;51.984;5.872;2024-02-15T00:49:50;12.10;99.90
39019;DHT22;24786;51.984;5.872;2024-02-15T00:52:16;12.10;99.90
39019;DHT22;24786;51.984;5.872;2024-02-15T00:54:44;12.10;99.90
39019;DHT22;24786;51.984;5.872;2024-02-15T00:57:09;12.10;99.90
39019;DHT22;24786;51.984;5.872;2024-02-15T00:59:34;12.10;99.90
39019;DHT22;24786;51.984;5.872;2024-02-15T01:02:01;12.10;99.90
39019;DHT22;24786;51.984;5.872;2024-02-15T01:04:27;12.10;99.90
39019;DHT22;24786;51.984;5.872;2024-02-15T01:06:53;12.10;99.90
39019;DHT22;24786;51.984;5.872;2024-02-15T01:09:18;12.10;99.90
39019;DHT22;24786;51.984;5.872;2024-02-15T01:11:44;12.10;99.90
39019;DHT22;24786;51.984;5.872;2024-02-15T01:14:09;12.10;99.90
39019;DHT22;24786;51.984;5.872;2024-02-15T01:16:35;12.10;99.90
39019;DHT22;24786;51.984;5.872;2024-02-15T01:19:01;12.10;99.90
39019;DHT22;24786;51.984;5.872;2024-02-15T01:21:27;12.10;99.90
39019;DHT22;24786;51.984;5.872;2024-02-15T01:23:52;12.10;99.90
39019;DHT22;24786;51.984;5.872;2024-02-15T01:26:19;12.10;99.90
39019;DHT22;24786;51.984;5.872;2024-02-15T01:28:45;12.10;99.90
39019;DHT22;24786;51.984;5.872;2024-02-15T01:31:11;12.10;99.90
39019;DHT22;24786;51.984;5.872;2024-02-15T01:33:37;12.10;99.90
39019;DHT22;24786;51.984;5.872;2024-02-15T01:36:03;12.10;99.90
39019;DHT22;24786;51.984;5.872;2024-02-15T01:38:28;12.10;99.90
39019;DHT22;24786;51.984;5.872;2024-02-15T01:40:54;12.10;99.90
39019;DHT22;24786;51.984;5.872;2024-02-15T01:43:19;12.10;99.90
39019;DHT22;24786;51.984;5.872;2024-02-15T01:45:45;12.10;99.90
39019;DHT22;24786;51.984;5.872;2024-02-15T01:48:12;12.10;99.90
39019;DHT22;24786;51.984;5.872;2024-02-15T01:50:38;12.10;99.90
39019;DHT22;24786;51.984;5.872;2024-02-15T01:53:04;12.10;99.90
39019;DHT22;24786;51.984;5.872;2024-02-15T01:55:31;12.10;99.90
39019;DHT22;24786;51.984;5.872;2024-02-15T01:57:58;12.10;99.90
39019;DHT22;24786;51.984;5.872;2024-02-15T02:00:23;12.10;99.90
39019;DHT22;24786;51.984;5.872;2024-02-15T02:02:49;12.10;99.90
39019;DHT22;24786;51.984;5.872;2024-02-15T02:05:15;12.10;99.90
39019;DHT22;24786;51.984;5.872;2024-02-15T02:07:40;12.10;99.90
39019;DHT22;24786;51.984;5.872;2024-02-15T02:10:07;12.10;99.90
39019;DHT22;24786;51.984;5.872;2024-02-15T02:12:32;12.10;99.90
39019;DHT22;24786;51.984;5.872;2024-02-15T02:14:58;12.10;99.90
39019;DHT22;24786;51.984;5.872;2024-02-15T02:17:24;12.10;99.90
39019;DHT22;24786;51.984;5.872;2024-02-15T02:19:49;12.10;99.90
39019;DHT22;24786;51.984;5.872;2024-02-15T02:22:15;12.00;99.90
39019;DHT22;24786;51.984;5.872;2024-02-15T02:24:52;12.10;99.90
39019;DHT22;24786;51.984;5.872;2024-02-15T02:27:18;12.10;99.90
39019;DHT22;24786;51.984;5.872;2024-02-15T02:29:44;12.10;99.90
39019;DHT22;24786;51.984;5.872;2024-02-15T02:32:11;12.10;99.90
39019;DHT22;24786;51.984;5.872;2024-02-15T02:34:36;12.10;99.90
39019;DHT22;24786;51.984;5.872;2024-02-15T02:37:02;12.10;99.90
39019;DHT22;24786;51.984;5.872;2024-02-15T02:39:30;12.00;99.90
39019;DHT22;24786;51.984;5.872;2024-02-15T02:41:57;12.10;99.90
39019;DHT22;24786;51.984;5.872;2024-02-15T02:44:22;12.10;99.90
39019;DHT22;24786;51.984;5.872;2024-02-15T02:46:48;12.10;99.90
39019;DHT22;24786;51.984;5.872;2024-02-15T02:49:13;12.10;99.90
39019;DHT22;24786;51.984;5.872;2024-02-15T02:51:39;12.00;99.90
39019;DHT22;24786;51.984;5.872;2024-02-15T02:54:04;12.10;99.90
39019;DHT22;24786;51.984;5.872;2024-02-15T02:56:32;12.10;99.90
39019;DHT22;24786;51.984;5.872;2024-02-15T02:58:57;12.10;99.90
39019;DHT22;24786;51.984;5.872;2024-02-15T03:01:23;12.10;99.90
39019;DHT22;24786;51.984;5.872;2024-02-15T03:03:52;12.00;99.90
39019;DHT22;24786;51.984;5.872;2024-02-15T03:06:17;12.00;99.90
39019;DHT22;24786;51.984;5.872;2024-02-15T03:08:43;12.00;99.90
39019;DHT22;24786;51.984;5.872;2024-02-15T03:11:09;12.00;99.90
39019;DHT22;24786;51.984;5.872;2024-02-15T03:13:35;12.00;99.90
39019;DHT22;24786;51.984;5.872;2024-02-15T03:16:21;12.00;99.90
39019;DHT22;24786;51.984;5.872;2024-02-15T03:18:47;12.00;99.90
39019;DHT22;24786;51.984;5.872;2024-02-15T03:21:14;12.00;99.90
39019;DHT22;24786;51.984;5.872;2024-02-15T03:23:40;12.00;99.90
39019;DHT22;24786;51.984;5.872;2024-02-15T03:26:07;12.00;99.90
39019;DHT22;24786;51.984;5.872;2024-02-15T03:28:52;11.90;99.90
39019;DHT22;24786;51.984;5.872;2024-02-15T03:31:26;11.90;99.90
39019;DHT22;24786;51.984;5.872;2024-02-15T03:34:00;11.90;99.90
39019;DHT22;24786;51.984;5.872;2024-02-15T03:36:26;12.00;99.90
39019;DHT22;24786;51.984;5.872;2024-02-15T03:38:52;11.90;99.90
39019;DHT22;24786;51.984;5.872;2024-02-15T03:41:27;11.90;99.90
39019;DHT22;24786;51.984;5.872;2024-02-15T03:44:08;11.90;99.90
39019;DHT22;24786;51.984;5.872;2024-02-15T03:46:35;11.90;99.90
39019;DHT22;24786;51.984;5.872;2024-02-15T03:49:00;11.80;99.90
39019;DHT22;24786;51.984;5.872;2024-02-15T03:51:26;11.90;99.90
39019;DHT22;24786;51.984;5.872;2024-02-15T03:53:52;11.90;99.90
39019;DHT22;24786;51.984;5.872;2024-02-15T03:56:18;11.90;99.90
39019;DHT22;24786;51.984;5.872;2024-02-15T03:58:43;11.90;99.90
39019;DHT22;24786;51.984;5.872;2024-02-15T04:01:10;11.80;99.90
39019;DHT22;24786;51.984;5.872;2024-02-15T04:03:36;11.90;99.90
39019;DHT22;24786;51.984;5.872;2024-02-15T04:06:02;11.80;99.90
39019;DHT22;24786;51.984;5.872;2024-02-15T04:08:27;11.80;99.90
39019;DHT22;24786;51.984;5.872;2024-02-15T04:10:53;11.90;99.90
39019;DHT22;24786;51.984;5.872;2024-02-15T04:13:19;11.80;99.90
39019;DHT22;24786;51.984;5.872;2024-02-15T04:15:44;11.80;99.90
39019;DHT22;24786;51.984;5.872;2024-02-15T04:18:12;11.80;99.90
39019;DHT22;24786;51.984;5.872;2024-02-15T04:20:39;11.80;99.90
39019;DHT22;24786;51.984;5.872;2024-02-15T04:23:10;11.70;99.90
39019;DHT22;24786;51.984;5.872;2024-02-15T04:25:35;11.70;99.90
39019;DHT22;24786;51.984;5.872;2024-02-15T04:28:01;11.70;99.90
39019;DHT22;24786;51.984;5.872;2024-02-15T04:30:29;11.80;99.90
39019;DHT22;24786;51.984;5.872;2024-02-15T04:32:55;11.70;99.90
39019;DHT22;24786;51.984;5.872;2024-02-15T04:35:21;11.70;99.90
39019;DHT22;24786;51.984;5.872;2024-02-15T04:37:47;11.80;99.90
39019;DHT22;24786;51.984;5.872;2024-02-15T04:40:14;11.80;99.90
39019;DHT22;24786;51.984;5.872;2024-02-15T04:42:40;11.90;99.90
39019;DHT22;24786;51.984;5.872;2024-02-15T04:45:07;11.80;99.90
39019;DHT22;24786;51.984;5.872;2024-02-15T04:47:34;11.80;99.90
39019;DHT22;24786;51.984;5.872;2024-02-15T04:49:59;11.80;99.90
39019;DHT22;24786;51.984;5.872;2024-02-15T04:52:25;11.80;99.90
39019;DHT22;24786;51.984;5.872;2024-02-15T04:54:53;11.80;99.90
39019;DHT22;24786;51.984;5.872;2024-02-15T04:57:22;11.80;99.90
39019;DHT22;24786;51.984;5.872;2024-02-15T04:59:54;11.80;99.90
39019;DHT22;24786;51.984;5.872;2024-02-15T05:02:31;11.80;99.90
39019;DHT22;24786;51.984;5.872;2024-02-15T05:04:57;11.80;99.90
39019;DHT22;24786;51.984;5.872;2024-02-15T05:07:22;11.90;99.90
39019;DHT22;24786;51.984;5.872;2024-02-15T05:09:48;11.80;99.90
39019;DHT22;24786;51.984;5.872;2024-02-15T05:12:21;11.80;99.90
39019;DHT22;24786;51.984;5.872;2024-02-15T05:14:59;11.80;99.90
39019;DHT22;24786;51.984;5.872;2024-02-15T05:17:27;11.80;99.90
39019;DHT22;24786;51.984;5.872;2024-02-15T05:19:56;11.90;99.90
39019;DHT22;24786;51.984;5.872;2024-02-15T05:22:27;11.80;99.90
39019;DHT22;24786;51.984;5.872;2024-02-15T05:25:09;11.80;99.90
39019;DHT22;24786;51.984;5.872;2024-02-15T05:27:37;11.80;99.90
39019;DHT22;24786;51.984;5.872;2024-02-15T05:30:03;11.80;99.90
39019;DHT22;24786;51.984;5.872;2024-02-15T05:32:33;11.80;99.90
39019;DHT22;24786;51.984;5.872;2024-02-15T05:34:59;11.80;99.90
39019;DHT22;24786;51.984;5.872;2024-02-15T05:37:27;11.80;99.90
39019;DHT22;24786;51.984;5.872;2024-02-15T05:39:52;11.80;99.90
39019;DHT22;24786;51.984;5.872;2024-02-15T05:42:19;11.90;99.90
39019;DHT22;24786;51.984;5.872;2024-02-15T05:44:53;11.90;99.90
39019;DHT22;24786;51.984;5.872;2024-02-15T05:47:19;11.80;99.90
39019;DHT22;24786;51.984;5.872;2024-02-15T05:49:54;11.80;99.90
39019;DHT22;24786;51.984;5.872;2024-02-15T05:52:31;11.80;99.90
39019;DHT22;24786;51.984;5.872;2024-02-15T05:55:06;11.80;99.90
39019;DHT22;24786;51.984;5.872;2024-02-15T05:57:31;11.80;99.90
39019;DHT22;24786;51.984;5.872;2024-02-15T05:59:58;11.80;99.90
39019;DHT22;24786;51.984;5.872;2024-02-15T06:02:27;11.80;99.90
39019;DHT22;24786;51.984;5.872;2024-02-15T06:07:47;11.80;99.90
39019;DHT22;24786;51.984;5.872;2024-02-15T06:10:13;11.80;99.90
39019;DHT22;24786;51.984;5.872;2024-02-15T06:12:40;11.80;99.90
39019;DHT22;24786;51.984;5.872;2024-02-15T06:15:09;11.80;99.90
39019;DHT22;24786;51.984;5.872;2024-02-15T06:17:40;11.80;99.90
39019;DHT22;24786;51.984;5.872;2024-02-15T06:20:07;11.70;99.90
39019;DHT22;24786;51.984;5.872;2024-02-15T06:22:33;11.80;99.90
39019;DHT22;24786;51.984;5.872;2024-02-15T06:25:07;11.70;99.90
39019;DHT22;24786;51.984;5.872;2024-02-15T06:27:32;11.70;99.90
39019;DHT22;24786;51.984;5.872;2024-02-15T06:29:58;11.70;99.90
39019;DHT22;24786;51.984;5.872;2024-02-15T06:32:42;11.70;99.90
39019;DHT22;24786;51.984;5.872;2024-02-15T06:35:26;11.80;99.90
39019;DHT22;24786;51.984;5.872;2024-02-15T06:38:10;11.80;99.90
39019;DHT22;24786;51.984;5.872;2024-02-15T06:40:55;11.80;99.90
39019;DHT22;24786;51.984;5.872;2024-02-15T06:43:20;11.80;99.90
39019;DHT22;24786;51.984;5.872;2024-02-15T06:45:46;11.80;99.90
39019;DHT22;24786;51.984;5.872;2024-02-15T06:48:15;11.80;99.90
39019;DHT22;24786;51.984;5.872;2024-02-15T06:50:40;11.80;99.90
39019;DHT22;24786;51.984;5.872;2024-02-15T06:53:06;11.80;99.90
39019;DHT22;24786;51.984;5.872;2024-02-15T06:55:32;11.80;99.90
39019;DHT22;24786;51.984;5.872;2024-02-15T06:57:59;11.80;99.90
39019;DHT22;24786;51.984;5.872;2024-02-15T07:00:24;11.90;99.90
39019;DHT22;24786;51.984;5.872;2024-02-15T07:02:50;11.80;99.90
39019;DHT22;24786;51.984;5.872;2024-02-15T07:05:15;11.80;99.90
39019;DHT22;24786;51.984;5.872;2024-02-15T07:07:42;11.90;99.90
39019;DHT22;24786;51.984;5.872;2024-02-15T07:10:08;11.90;99.90
39019;DHT22;24786;51.984;5.872;2024-02-15T07:12:52;11.90;99.90
39019;DHT22;24786;51.984;5.872;2024-02-15T07:15:38;11.90;99.90
39019;DHT22;24786;51.984;5.872;2024-02-15T07:18:04;11.90;99.90
39019;DHT22;24786;51.984;5.872;2024-02-15T07:20:41;11.90;99.90
39019;DHT22;24786;51.984;5.872;2024-02-15T07:23:21;11.90;99.90
39019;DHT22;24786;51.984;5.872;2024-02-15T07:25:46;11.90;99.90
39019;DHT22;24786;51.984;5.872;2024-02-15T07:28:17;11.90;99.90
39019;DHT22;24786;51.984;5.872;2024-02-15T07:30:55;11.90;99.90
39019;DHT22;24786;51.984;5.872;2024-02-15T07:33:21;11.90;99.90
39019;DHT22;24786;51.984;5.872;2024-02-15T07:36:01;11.90;99.90
39019;DHT22;24786;51.984;5.872;2024-02-15T07:38:27;11.90;99.90
39019;DHT22;24786;51.984;5.872;2024-02-15T07:41:05;11.90;99.90
39019;DHT22;24786;51.984;5.872;2024-02-15T07:43:30;12.00;99.90
39019;DHT22;24786;51.984;5.872;2024-02-15T07:45:56;12.00;99.90
39019;DHT22;24786;51.984;5.872;2024-02-15T07:48:22;11.90;99.90
39019;DHT22;24786;51.984;5.872;2024-02-15T07:50:53;12.00;99.90
39019;DHT22;24786;51.984;5.872;2024-02-15T07:53:19;12.00;99.90
39019;DHT22;24786;51.984;5.872;2024-02-15T07:55:45;11.90;99.90
39019;DHT22;24786;51.984;5.872;2024-02-15T07:58:13;12.00;99.90
39019;DHT22;24786;51.984;5.872;2024-02-15T08:00:45;12.00;99.90
39019;DHT22;24786;51.984;5.872;2024-02-15T08:03:23;11.90;99.90
39019;DHT22;24786;51.984;5.872;2024-02-15T08:05:48;11.90;99.90
39019;DHT22;24786;51.984;5.872;2024-02-15T08:08:14;12.00;99.90
39019;DHT22;24786;51.984;5.872;2024-02-15T08:10:39;12.00;99.90
39019;DHT22;24786;51.984;5.872;2024-02-15T08:13:20;12.00;99.90
39019;DHT22;24786;51.984;5.872;2024-02-15T08:15:47;12.00;99.90
39019;DHT22;24786;51.984;5.872;2024-02-15T08:18:26;12.00;99.90
39019;DHT22;24786;51.984;5.872;2024-02-15T08:20:53;12.00;99.90
39019;DHT22;24786;51.984;5.872;2024-02-15T08:23:19;12.00;99.90
39019;DHT22;24786;51.984;5.872;2024-02-15T08:26:02;12.00;99.90
39019;DHT22;24786;51.984;5.872;2024-02-15T08:28:28;12.00;99.90
39019;DHT22;24786;51.984;5.872;2024-02-15T08:30:54;12.00;99.90
39019;DHT22;24786;51.984;5.872;2024-02-15T08:33:24;12.00;99.90
39019;DHT22;24786;51.984;5.872;2024-02-15T08:38:24;12.10;99.90
39019;DHT22;24786;51.984;5.872;2024-02-15T08:40:49;12.10;99.90
39019;DHT22;24786;51.984;5.872;2024-02-15T08:43:15;12.10;99.90
39019;DHT22;24786;51.984;5.872;2024-02-15T08:45:50;12.10;99.90
39019;DHT22;24786;51.984;5.872;2024-02-15T08:48:30;12.10;99.90
39019;DHT22;24786;51.984;5.872;2024-02-15T08:51:11;12.10;99.90
39019;DHT22;24786;51.984;5.872;2024-02-15T08:53:49;12.10;99.90
39019;DHT22;24786;51.984;5.872;2024-02-15T08:56:14;12.10;99.90
39019;DHT22;24786;51.984;5.872;2024-02-15T08:58:58;12.10;99.90
39019;DHT22;24786;51.984;5.872;2024-02-15T09:01:37;12.00;99.90
39019;DHT22;24786;51.984;5.872;2024-02-15T09:04:11;12.10;99.90
39019;DHT22;24786;51.984;5.872;2024-02-15T09:06:54;12.10;99.90
39019;DHT22;24786;51.984;5.872;2024-02-15T09:09:36;12.10;99.90
39019;DHT22;24786;51.984;5.872;2024-02-15T09:12:02;12.10;99.90
39019;DHT22;24786;51.984;5.872;2024-02-15T09:14:31;12.10;99.90
39019;DHT22;24786;51.984;5.872;2024-02-15T09:16:57;12.10;99.90
39019;DHT22;24786;51.984;5.872;2024-02-15T09:19:23;12.10;99.90
39019;DHT22;24786;51.984;5.872;2024-02-15T09:21:49;12.10;99.90
39019;DHT22;24786;51.984;5.872;2024-02-15T09:24:14;12.10;99.90
39019;DHT22;24786;51.984;5.872;2024-02-15T09:26:51;12.10;99.90
39019;DHT22;24786;51.984;5.872;2024-02-15T09:32:23;12.10;99.90
39019;DHT22;24786;51.984;5.872;2024-02-15T09:34:49;12.10;99.90
39019;DHT22;24786;51.984;5.872;2024-02-15T09:40:25;12.10;99.90
39019;DHT22;24786;51.984;5.872;2024-02-15T09:42:51;12.10;99.90
39019;DHT22;24786;51.984;5.872;2024-02-15T09:45:17;12.10;99.90
39019;DHT22;24786;51.984;5.872;2024-02-15T09:47:53;12.10;99.90
39019;DHT22;24786;51.984;5.872;2024-02-15T09:50:39;12.10;99.90
39019;DHT22;24786;51.984;5.872;2024-02-15T09:53:07;12.10;99.90
39019;DHT22;24786;51.984;5.872;2024-02-15T09:55:36;12.10;99.90
39019;DHT22;24786;51.984;5.872;2024-02-15T10:01:04;12.10;99.90
39019;DHT22;24786;51.984;5.872;2024-02-15T10:03:36;12.10;99.90
39019;DHT22;24786;51.984;5.872;2024-02-15T10:06:08;12.20;99.90
39019;DHT22;24786;51.984;5.872;2024-02-15T10:08:42;12.10;99.90
39019;DHT22;24786;51.984;5.872;2024-02-15T10:11:13;12.10;99.90
39019;DHT22;24786;51.984;5.872;2024-02-15T10:13:39;12.10;99.90
39019;DHT22;24786;51.984;5.872;2024-02-15T10:18:51;12.20;99.90
39019;DHT22;24786;51.984;5.872;2024-02-15T10:21:26;12.20;99.90
39019;DHT22;24786;51.984;5.872;2024-02-15T10:24:07;12.20;99.90
39019;DHT22;24786;51.984;5.872;2024-02-15T10:26:35;12.10;99.90
39019;DHT22;24786;51.984;5.872;2024-02-15T10:31:53;12.20;99.90
39019;DHT22;24786;51.984;5.872;2024-02-15T11:05:08;12.40;99.90
39019;DHT22;24786;51.984;5.872;2024-02-15T11:10:42;12.40;99.90
39019;DHT22;24786;51.984;5.872;2024-02-15T11:13:21;12.40;99.90
39019;DHT22;24786;51.984;5.872;2024-02-15T11:15:59;12.50;99.90
39019;DHT22;24786;51.984;5.872;2024-02-15T11:36:19;12.70;99.90
39019;DHT22;24786;51.984;5.872;2024-02-15T11:47:31;12.80;99.90
39019;DHT22;24786;51.984;5.872;2024-02-15T11:53:01;12.80;99.90
39019;DHT22;24786;51.984;5.872;2024-02-15T11:58:37;12.90;99.90
39019;DHT22;24786;51.984;5.872;2024-02-15T12:01:35;12.90;99.90
39019;DHT22;24786;51.984;5.872;2024-02-15T12:04:20;13.00;99.90
39019;DHT22;24786;51.984;5.872;2024-02-15T12:10:07;13.20;99.90
39019;DHT22;24786;51.984;5.872;2024-02-15T12:12:54;13.20;99.90
39019;DHT22;24786;51.984;5.872;2024-02-15T12:15:41;13.30;99.90
39019;DHT22;24786;51.984;5.872;2024-02-15T12:18:44;13.40;99.90
39019;DHT22;24786;51.984;5.872;2024-02-15T12:21:58;13.40;99.90
39019;DHT22;24786;51.984;5.872;2024-02-15T12:24:26;13.50;99.90
39019;DHT22;24786;51.984;5.872;2024-02-15T12:29:56;13.60;99.90
39019;DHT22;24786;51.984;5.872;2024-02-15T12:32:23;13.60;99.90
39019;DHT22;24786;51.984;5.872;2024-02-15T12:35:24;13.60;99.90
39019;DHT22;24786;51.984;5.872;2024-02-15T12:44:18;13.80;99.90
39019;DHT22;24786;51.984;5.872;2024-02-15T12:46:54;13.80;99.90
39019;DHT22;24786;51.984;5.872;2024-02-15T12:58:29;14.00;99.90
39019;DHT22;24786;51.984;5.872;2024-02-15T13:00:59;14.00;99.90
39019;DHT22;24786;51.984;5.872;2024-02-15T13:03:34;14.10;99.90
39019;DHT22;24786;51.984;5.872;2024-02-15T13:08:54;14.20;99.90
39019;DHT22;24786;51.984;5.872;2024-02-15T13:11:19;14.20;99.90
39019;DHT22;24786;51.984;5.872;2024-02-15T13:13:53;14.20;99.90
39019;DHT22;24786;51.984;5.872;2024-02-15T13:19:12;14.30;99.90
39019;DHT22;24786;51.984;5.872;2024-02-15T13:21:37;14.30;99.90
39019;DHT22;24786;51.984;5.872;2024-02-15T13:27:15;14.20;99.90
39019;DHT22;24786;51.984;5.872;2024-02-15T13:29:44;14.20;99.90
39019;DHT22;24786;51.984;5.872;2024-02-15T13:32:10;14.20;99.90
39019;DHT22;24786;51.984;5.872;2024-02-15T13:34:37;14.10;99.90
39019;DHT22;24786;51.984;5.872;2024-02-15T13:37:03;14.20;99.90
39019;DHT22;24786;51.984;5.872;2024-02-15T13:39:41;14.20;99.90
39019;DHT22;24786;51.984;5.872;2024-02-15T13:42:11;14.20;99.90
39019;DHT22;24786;51.984;5.872;2024-02-15T13:44:37;14.10;99.90
39019;DHT22;24786;51.984;5.872;2024-02-15T13:47:16;14.10;99.90
39019;DHT22;24786;51.984;5.872;2024-02-15T13:49:48;14.20;99.90
39019;DHT22;24786;51.984;5.872;2024-02-15T13:52:17;14.20;99.90
39019;DHT22;24786;51.984;5.872;2024-02-15T13:57:59;14.20;99.90
39019;DHT22;24786;51.984;5.872;2024-02-15T14:03:25;14.20;99.90
39019;DHT22;24786;51.984;5.872;2024-02-15T14:08:46;14.10;99.90
39019;DHT22;24786;51.984;5.872;2024-02-15T14:11:18;14.20;99.90
39019;DHT22;24786;51.984;5.872;2024-02-15T14:58:01;14.30;99.90
39019;DHT22;24786;51.984;5.872;2024-02-15T15:00:28;14.30;99.90
39019;DHT22;24786;51.984;5.872;2024-02-15T15:02:53;14.40;99.90
39019;DHT22;24786;51.984;5.872;2024-02-15T15:05:22;14.30;99.90
39019;DHT22;24786;51.984;5.872;2024-02-15T15:08:06;14.30;99.90
39019;DHT22;24786;51.984;5.872;2024-02-15T15:10:51;14.40;99.90
39019;DHT22;24786;51.984;5.872;2024-02-15T15:13:35;14.30;99.90
39019;DHT22;24786;51.984;5.872;2024-02-15T15:16:01;14.30;99.90
39019;DHT22;24786;51.984;5.872;2024-02-15T15:18:30;14.30;99.90
39019;DHT22;24786;51.984;5.872;2024-02-15T15:20:59;14.40;99.90
39019;DHT22;24786;51.984;5.872;2024-02-15T15:23:26;14.30;99.90
39019;DHT22;24786;51.984;5.872;2024-02-15T15:25:51;14.30;99.90
39019;DHT22;24786;51.984;5.872;2024-02-15T15:28:17;14.30;99.90
39019;DHT22;24786;51.984;5.872;2024-02-15T15:30:43;14.30;99.90
39019;DHT22;24786;51.984;5.872;2024-02-15T15:33:17;14.30;99.90
39019;DHT22;24786;51.984;5.872;2024-02-15T15:36:03;14.30;99.90
39019;DHT22;24786;51.984;5.872;2024-02-15T15:38:29;14.30;99.90
39019;DHT22;24786;51.984;5.872;2024-02-15T15:40:54;14.30;99.90
39019;DHT22;24786;51.984;5.872;2024-02-15T15:43:20;14.20;99.90
39019;DHT22;24786;51.984;5.872;2024-02-15T15:45:55;14.20;99.90
39019;DHT22;24786;51.984;5.872;2024-02-15T15:48:21;14.20;99.90
39019;DHT22;24786;51.984;5.872;2024-02-15T15:50:54;14.20;99.90
39019;DHT22;24786;51.984;5.872;2024-02-15T15:53:30;14.20;99.90
39019;DHT22;24786;51.984;5.872;2024-02-15T15:56:16;14.20;99.90
39019;DHT22;24786;51.984;5.872;2024-02-15T15:58:42;14.20;99.90
39019;DHT22;24786;51.984;5.872;2024-02-15T16:01:25;14.10;99.90
39019;DHT22;24786;51.984;5.872;2024-02-15T16:03:56;14.20;99.90
39019;DHT22;24786;51.984;5.872;2024-02-15T16:06:25;14.20;99.90
39019;DHT22;24786;51.984;5.872;2024-02-15T16:08:50;14.20;99.90
39019;DHT22;24786;51.984;5.872;2024-02-15T16:11:16;14.20;99.90
39019;DHT22;24786;51.984;5.872;2024-02-15T16:13:42;14.10;99.90
39019;DHT22;24786;51.984;5.872;2024-02-15T16:16:08;14.10;99.90
39019;DHT22;24786;51.984;5.872;2024-02-15T16:18:55;14.10;99.90
39019;DHT22;24786;51.984;5.872;2024-02-15T16:21:20;14.10;99.90
39019;DHT22;24786;51.984;5.872;2024-02-15T16:24:01;14.00;99.90
39019;DHT22;24786;51.984;5.872;2024-02-15T16:26:26;14.00;99.90
39019;DHT22;24786;51.984;5.872;2024-02-15T16:28:52;14.00;99.90
39019;DHT22;24786;51.984;5.872;2024-02-15T16:31:17;13.90;99.90
39019;DHT22;24786;51.984;5.872;2024-02-15T16:33:47;13.80;99.90
39019;DHT22;24786;51.984;5.872;2024-02-15T16:36:22;13.90;99.90
39019;DHT22;24786;51.984;5.872;2024-02-15T16:38:48;13.80;99.90
39019;DHT22;24786;51.984;5.872;2024-02-15T16:41:14;13.80;99.90
39019;DHT22;24786;51.984;5.872;2024-02-15T16:43:55;13.70;99.90
39019;DHT22;24786;51.984;5.872;2024-02-15T16:46:22;13.70;99.90
39019;DHT22;24786;51.984;5.872;2024-02-15T16:48:55;13.70;99.90
39019;DHT22;24786;51.984;5.872;2024-02-15T16:51:21;13.70;99.90
39019;DHT22;24786;51.984;5.872;2024-02-15T16:53:57;13.60;99.90
39019;DHT22;24786;51.984;5.872;2024-02-15T16:56:23;13.70;99.90
39019;DHT22;24786;51.984;5.872;2024-02-15T16:58:51;13.60;99.90
39019;DHT22;24786;51.984;5.872;2024-02-15T17:01:22;13.60;99.90
39019;DHT22;24786;51.984;5.872;2024-02-15T17:03:55;13.60;99.90
39019;DHT22;24786;51.984;5.872;2024-02-15T17:06:20;13.50;99.90
39019;DHT22;24786;51.984;5.872;2024-02-15T17:11:36;13.50;99.90
39019;DHT22;24786;51.984;5.872;2024-02-15T17:14:17;13.50;99.90
39019;DHT22;24786;51.984;5.872;2024-02-15T17:19:46;13.50;99.90
39019;DHT22;24786;51.984;5.872;2024-02-15T17:22:11;13.50;99.90
39019;DHT22;24786;51.984;5.872;2024-02-15T17:24:52;13.50;99.90
39019;DHT22;24786;51.984;5.872;2024-02-15T17:27:18;13.40;99.90
39019;DHT22;24786;51.984;5.872;2024-02-15T17:29:44;13.40;99.90
39019;DHT22;24786;51.984;5.872;2024-02-15T17:32:28;13.30;99.90
39019;DHT22;24786;51.984;5.872;2024-02-15T17:34:54;13.40;99.90
39019;DHT22;24786;51.984;5.872;2024-02-15T17:37:19;13.30;99.90
39019;DHT22;24786;51.984;5.872;2024-02-15T17:39:45;13.30;99.90
39019;DHT22;24786;51.984;5.872;2024-02-15T17:42:11;13.30;99.90
39019;DHT22;24786;51.984;5.872;2024-02-15T17:44:45;13.30;99.90
39019;DHT22;24786;51.984;5.872;2024-02-15T17:47:11;13.20;99.90
39019;DHT22;24786;51.984;5.872;2024-02-15T17:49:55;13.20;99.90
39019;DHT22;24786;51.984;5.872;2024-02-15T17:52:22;13.20;99.90
39019;DHT22;24786;51.984;5.872;2024-02-15T17:55:00;13.20;99.90
39019;DHT22;24786;51.984;5.872;2024-02-15T17:57:26;13.10;99.90
39019;DHT22;24786;51.984;5.872;2024-02-15T17:59:57;13.10;99.90
39019;DHT22;24786;51.984;5.872;2024-02-15T18:02:22;13.10;99.90
39019;DHT22;24786;51.984;5.872;2024-02-15T18:04:48;13.10;99.90
39019;DHT22;24786;51.984;5.872;2024-02-15T18:07:29;13.00;99.90
39019;DHT22;24786;51.984;5.872;2024-02-15T18:09:57;13.10;99.90
39019;DHT22;24786;51.984;5.872;2024-02-15T18:12:25;13.10;99.90
39019;DHT22;24786;51.984;5.872;2024-02-15T18:15:11;13.00;99.90
39019;DHT22;24786;51.984;5.872;2024-02-15T18:17:55;13.00;99.90
39019;DHT22;24786;51.984;5.872;2024-02-15T18:20:21;13.00;99.90
39019;DHT22;24786;51.984;5.872;2024-02-15T18:22:48;13.10;99.90
39019;DHT22;24786;51.984;5.872;2024-02-15T18:25:14;12.90;99.90
39019;DHT22;24786;51.984;5.872;2024-02-15T18:27:39;12.90;99.90
39019;DHT22;24786;51.984;5.872;2024-02-15T18:30:17;12.90;99.90
39019;DHT22;24786;51.984;5.872;2024-02-15T18:32:58;12.90;99.90
39019;DHT22;24786;51.984;5.872;2024-02-15T18:38:17;12.70;99.90
39019;DHT22;24786;51.984;5.872;2024-02-15T18:40:43;12.80;99.90
39019;DHT22;24786;51.984;5.872;2024-02-15T18:43:08;12.70;99.90
39019;DHT22;24786;51.984;5.872;2024-02-15T18:45:34;12.70;99.90